Terminal Aerodrome Forecast
Issued by NWS

Home | Current Version | Previous Version | Text Only | Print | Product List | Glossary On
Versions: 1 2 3 4 5 6 7 8 9 10 11 12 13 14 15 16 17 18 19 20 21 22 23 24 25 26 27 28 29 30 31 32 33
000
FTUS41 KOKX 191244 AAA
TAFGON
TAF AMD
KGON 191244Z 1913/2012 21020G30KT 6SM -SHRA BR BKN015 OVC040
      WS020/22050KT
     FM191400 24022G40KT 6SM -SHRA BR BKN030 OVC040
     FM191500 28021G38KT P6SM BKN040
     FM191900 29020G34KT P6SM SCT040
     FM200000 29017G28KT P6SM SCT050
     FM200300 29015G26KT P6SM FEW040=

USA.gov is the U.S. government's official web portal to all federal, state and local government web resources and services.